sensor_id;sensor_type;location;lat;lon;timestamp;pressure;altitude;pressure_sealevel;temperature;humidity
35918;BME280;22011;59.912;30.300;2023-09-08T00:00:52;102105.50;;;16.64;72.30
35918;BME280;22011;59.912;30.300;2023-09-08T00:03:19;102104.50;;;16.65;72.47
35918;BME280;22011;59.912;30.300;2023-09-08T00:05:47;102103.66;;;16.64;72.18
35918;BME280;22011;59.912;30.300;2023-09-08T00:08:15;102109.06;;;16.64;72.31
35918;BME280;22011;59.912;30.300;2023-09-08T00:10:44;102121.16;;;16.60;72.75
35918;BME280;22011;59.912;30.300;2023-09-08T00:13:12;102120.19;;;16.53;72.61
35918;BME280;22011;59.912;30.300;2023-09-08T00:15:39;102127.41;;;16.53;72.66
35918;BME280;22011;59.912;30.300;2023-09-08T00:18:07;102110.25;;;16.54;72.20
35918;BME280;22011;59.912;30.300;2023-09-08T00:20:35;102110.91;;;16.56;72.77
35918;BME280;22011;59.912;30.300;2023-09-08T00:23:02;102108.06;;;16.57;72.19
35918;BME280;22011;59.912;30.300;2023-09-08T00:25:30;102106.72;;;16.53;72.35
35918;BME280;22011;59.912;30.300;2023-09-08T00:27:59;102106.72;;;16.53;72.81
35918;BME280;22011;59.912;30.300;2023-09-08T00:30:27;102102.19;;;16.46;72.76
35918;BME280;22011;59.912;30.300;2023-09-08T00:32:54;102105.56;;;16.48;72.79
35918;BME280;22011;59.912;30.300;2023-09-08T00:35:22;102103.38;;;16.51;72.88
35918;BME280;22011;59.912;30.300;2023-09-08T00:37:49;102097.47;;;16.48;73.06
35918;BME280;22011;59.912;30.300;2023-09-08T00:40:17;102103.72;;;16.48;72.94
35918;BME280;22011;59.912;30.300;2023-09-08T00:42:45;102097.16;;;16.51;72.77
35918;BME280;22011;59.912;30.300;2023-09-08T00:45:15;102095.13;;;16.53;73.47
35918;BME280;22011;59.912;30.300;2023-09-08T00:47:43;102098.31;;;16.48;73.03
35918;BME280;22011;59.912;30.300;2023-09-08T00:50:11;102100.00;;;16.49;73.05
35918;BME280;22011;59.912;30.300;2023-09-08T00:52:39;102086.56;;;16.49;72.99
35918;BME280;22011;59.912;30.300;2023-09-08T00:55:07;102085.72;;;16.49;73.11
35918;BME280;22011;59.912;30.300;2023-09-08T00:57:35;102078.81;;;16.46;73.20
35918;BME280;22011;59.912;30.300;2023-09-08T01:00:03;102081.69;;;16.45;73.48
35918;BME280;22011;59.912;30.300;2023-09-08T01:02:33;102078.13;;;16.52;73.58
35918;BME280;22011;59.912;30.300;2023-09-08T01:05:01;102074.47;;;16.45;73.29
35918;BME280;22011;59.912;30.300;2023-09-08T01:07:30;102091.03;;;16.73;72.89
35918;BME280;22011;59.912;30.300;2023-09-08T01:09:59;102087.63;;;16.87;72.18
35918;BME280;22011;59.912;30.300;2023-09-08T01:12:30;102083.88;;;16.49;73.19
35918;BME280;22011;59.912;30.300;2023-09-08T01:14:58;102086.34;;;16.67;71.83
35918;BME280;22011;59.912;30.300;2023-09-08T01:17:25;102085.56;;;16.34;72.26
35918;BME280;22011;59.912;30.300;2023-09-08T01:19:55;102085.25;;;16.29;72.66
35918;BME280;22011;59.912;30.300;2023-09-08T01:22:35;102085.88;;;17.03;72.39
35918;BME280;22011;59.912;30.300;2023-09-08T01:25:15;102086.00;;;16.70;71.66
35918;BME280;22011;59.912;30.300;2023-09-08T01:27:47;102089.28;;;16.33;71.88
35918;BME280;22011;59.912;30.300;2023-09-08T01:30:16;102090.63;;;16.21;72.13
35918;BME280;22011;59.912;30.300;2023-09-08T01:32:45;102078.53;;;16.17;72.46
35918;BME280;22011;59.912;30.300;2023-09-08T01:35:13;102084.75;;;16.17;72.95
35918;BME280;22011;59.912;30.300;2023-09-08T01:37:43;102074.84;;;16.18;72.73
35918;BME280;22011;59.912;30.300;2023-09-08T01:40:13;102072.47;;;16.23;73.19
35918;BME280;22011;59.912;30.300;2023-09-08T01:42:41;102072.13;;;16.34;72.44
35918;BME280;22011;59.912;30.300;2023-09-08T01:45:09;102056.84;;;16.26;72.82
35918;BME280;22011;59.912;30.300;2023-09-08T01:47:37;102057.69;;;16.27;73.04
35918;BME280;22011;59.912;30.300;2023-09-08T01:50:04;102058.53;;;16.27;73.02
35918;BME280;22011;59.912;30.300;2023-09-08T01:52:32;102059.03;;;16.31;72.83
35918;BME280;22011;59.912;30.300;2023-09-08T01:55:01;102057.00;;;16.33;73.42
35918;BME280;22011;59.912;30.300;2023-09-08T01:57:30;102054.47;;;16.40;73.71
35918;BME280;22011;59.912;30.300;2023-09-08T01:59:58;102056.31;;;16.39;73.36
35918;BME280;22011;59.912;30.300;2023-09-08T02:02:26;102054.28;;;16.41;73.00
35918;BME280;22011;59.912;30.300;2023-09-08T02:04:54;102044.38;;;16.42;73.04
35918;BME280;22011;59.912;30.300;2023-09-08T02:07:21;102051.94;;;16.46;73.25
35918;BME280;22011;59.912;30.300;2023-09-08T02:09:51;102045.72;;;16.46;73.29
35918;BME280;22011;59.912;30.300;2023-09-08T02:12:21;102050.41;;;16.52;72.93
35918;BME280;22011;59.912;30.300;2023-09-08T02:14:50;102046.97;;;16.74;72.42
35918;BME280;22011;59.912;30.300;2023-09-08T02:17:18;102037.09;;;16.58;72.68
35918;BME280;22011;59.912;30.300;2023-09-08T02:19:46;102031.72;;;16.58;73.19
35918;BME280;22011;59.912;30.300;2023-09-08T02:22:13;102034.41;;;16.58;73.67
35918;BME280;22011;59.912;30.300;2023-09-08T02:24:41;102031.72;;;16.58;73.51
35918;BME280;22011;59.912;30.300;2023-09-08T02:27:09;102029.28;;;16.80;73.59
35918;BME280;22011;59.912;30.300;2023-09-08T02:29:37;102037.09;;;16.58;74.32
35918;BME280;22011;59.912;30.300;2023-09-08T02:32:06;102040.91;;;16.64;74.50
35918;BME280;22011;59.912;30.300;2023-09-08T02:34:35;102041.59;;;16.66;74.59
35918;BME280;22011;59.912;30.300;2023-09-08T02:37:05;102044.13;;;16.67;74.51
35918;BME280;22011;59.912;30.300;2023-09-08T02:39:33;102040.41;;;16.68;74.98
35918;BME280;22011;59.912;30.300;2023-09-08T02:42:02;102035.03;;;16.68;75.15
35918;BME280;22011;59.912;30.300;2023-09-08T02:44:31;102036.72;;;16.70;75.09
35918;BME280;22011;59.912;30.300;2023-09-08T02:46:59;102029.31;;;16.72;74.86
35918;BME280;22011;59.912;30.300;2023-09-08T02:49:29;102026.44;;;16.73;75.50
35918;BME280;22011;59.912;30.300;2023-09-08T02:51:56;102020.56;;;16.70;75.34
35918;BME280;22011;59.912;30.300;2023-09-08T02:54:24;102013.81;;;16.74;75.32
35918;BME280;22011;59.912;30.300;2023-09-08T02:56:51;102005.56;;;16.75;75.40
35918;BME280;22011;59.912;30.300;2023-09-08T02:59:19;102002.03;;;16.75;75.58
35918;BME280;22011;59.912;30.300;2023-09-08T03:01:47;102004.06;;;16.73;75.74
35918;BME280;22011;59.912;30.300;2023-09-08T03:04:14;102000.00;;;16.77;75.75
35918;BME280;22011;59.912;30.300;2023-09-08T03:06:43;101998.16;;;16.77;76.13
35918;BME280;22011;59.912;30.300;2023-09-08T03:09:11;101992.47;;;16.72;76.18
35918;BME280;22011;59.912;30.300;2023-09-08T03:11:38;101995.66;;;16.76;76.20
35918;BME280;22011;59.912;30.300;2023-09-08T03:14:07;101993.13;;;16.74;76.58
35918;BME280;22011;59.912;30.300;2023-09-08T03:16:34;101992.28;;;16.74;76.47
35918;BME280;22011;59.912;30.300;2023-09-08T03:19:03;101991.28;;;16.75;76.30
35918;BME280;22011;59.912;30.300;2023-09-08T03:21:31;101986.72;;;16.75;76.60
35918;BME280;22011;59.912;30.300;2023-09-08T03:24:00;101991.94;;;16.77;76.76
35918;BME280;22011;59.912;30.300;2023-09-08T03:26:28;101990.44;;;16.74;76.72
35918;BME280;22011;59.912;30.300;2023-09-08T03:28:55;101980.50;;;16.75;76.79
35918;BME280;22011;59.912;30.300;2023-09-08T03:31:24;101985.91;;;16.75;76.48
35918;BME280;22011;59.912;30.300;2023-09-08T03:33:51;101985.06;;;16.74;76.90
35918;BME280;22011;59.912;30.300;2023-09-08T03:36:19;101989.25;;;16.77;76.80
35918;BME280;22011;59.912;30.300;2023-09-08T03:38:46;101977.28;;;16.79;76.63
35918;BME280;22011;59.912;30.300;2023-09-08T03:41:16;101985.50;;;16.86;76.96
35918;BME280;22011;59.912;30.300;2023-09-08T03:43:43;101988.19;;;16.86;76.79
35918;BME280;22011;59.912;30.300;2023-09-08T03:46:12;101982.16;;;16.84;77.10
35918;BME280;22011;59.912;30.300;2023-09-08T03:48:40;101981.31;;;16.83;77.31
35918;BME280;22011;59.912;30.300;2023-09-08T03:51:07;101984.00;;;16.83;77.02
35918;BME280;22011;59.912;30.300;2023-09-08T03:53:35;101982.81;;;16.86;77.39
35918;BME280;22011;59.912;30.300;2023-09-08T03:56:03;101990.03;;;16.85;77.19
35918;BME280;22011;59.912;30.300;2023-09-08T03:58:32;101984.78;;;16.92;77.34
35918;BME280;22011;59.912;30.300;2023-09-08T04:01:00;101986.47;;;16.93;76.84
35918;BME280;22011;59.912;30.300;2023-09-08T04:03:27;101983.59;;;16.94;77.19
35918;BME280;22011;59.912;30.300;2023-09-08T04:05:55;101983.25;;;16.97;77.16
35918;BME280;22011;59.912;30.300;2023-09-08T04:08:22;101991.16;;;16.99;77.04
35918;BME280;22011;59.912;30.300;2023-09-08T04:10:50;101991.81;;;17.01;77.20
35918;BME280;22011;59.912;30.300;2023-09-08T04:13:18;101988.09;;;17.02;77.19
35918;BME280;22011;59.912;30.300;2023-09-08T04:15:47;101989.41;;;17.06;77.07
35918;BME280;22011;59.912;30.300;2023-09-08T04:18:14;101984.88;;;17.07;77.00
35918;BME280;22011;59.912;30.300;2023-09-08T04:20:42;101984.03;;;17.06;76.99
35918;BME280;22011;59.912;30.300;2023-09-08T04:23:10;101988.75;;;17.04;77.32
35918;BME280;22011;59.912;30.300;2023-09-08T04:25:38;101988.59;;;17.06;76.96
35918;BME280;22011;59.912;30.300;2023-09-08T04:28:06;101985.22;;;17.04;77.50
35918;BME280;22011;59.912;30.300;2023-09-08T04:30:33;101986.41;;;17.01;77.64
35918;BME280;22011;59.912;30.300;2023-09-08T04:33:02;101984.69;;;17.08;77.60
35918;BME280;22011;59.912;30.300;2023-09-08T04:35:30;101983.69;;;17.09;77.48
35918;BME280;22011;59.912;30.300;2023-09-08T04:37:58;101983.69;;;17.09;77.31
35918;BME280;22011;59.912;30.300;2023-09-08T04:40:26;101975.06;;;17.14;77.36
35918;BME280;22011;59.912;30.300;2023-09-08T04:42:53;101974.53;;;17.18;77.10
35918;BME280;22011;59.912;30.300;2023-09-08T04:45:22;101977.88;;;17.20;76.92
35918;BME280;22011;59.912;30.300;2023-09-08T04:47:50;101974.84;;;17.23;76.91
35918;BME280;22011;59.912;30.300;2023-09-08T04:50:20;101973.28;;;17.29;77.30
35918;BME280;22011;59.912;30.300;2023-09-08T04:52:48;101961.66;;;17.28;76.77
35918;BME280;22011;59.912;30.300;2023-09-08T04:55:16;101976.31;;;17.26;77.27
35918;BME280;22011;59.912;30.300;2023-09-08T04:57:45;101974.28;;;17.28;77.22
35918;BME280;22011;59.912;30.300;2023-09-08T05:00:14;101977.00;;;17.28;77.07
35918;BME280;22011;59.912;30.300;2023-09-08T05:02:41;101967.72;;;17.30;76.90
35918;BME280;22011;59.912;30.300;2023-09-08T05:05:10;101971.25;;;17.31;77.01
35918;BME280;22011;59.912;30.300;2023-09-08T05:07:39;101971.34;;;17.38;77.24
35918;BME280;22011;59.912;30.300;2023-09-08T05:10:08;101967.94;;;17.44;76.32
35918;BME280;22011;59.912;30.300;2023-09-08T05:12:38;101961.53;;;17.45;76.57
35918;BME280;22011;59.912;30.300;2023-09-08T05:15:06;101967.22;;;17.50;76.53
35918;BME280;22011;59.912;30.300;2023-09-08T05:17:41;101960.44;;;17.54;76.19
35918;BME280;22011;59.912;30.300;2023-09-08T05:20:10;101959.72;;;17.60;76.47
35918;BME280;22011;59.912;30.300;2023-09-08T05:22:39;101956.47;;;17.64;76.53
35918;BME280;22011;59.912;30.300;2023-09-08T05:25:07;101954.81;;;17.63;76.37
35918;BME280;22011;59.912;30.300;2023-09-08T05:27:35;101956.34;;;17.66;76.03
35918;BME280;22011;59.912;30.300;2023-09-08T05:30:04;101955.75;;;17.71;76.11
35918;BME280;22011;59.912;30.300;2023-09-08T05:32:34;101956.59;;;17.71;76.09
35918;BME280;22011;59.912;30.300;2023-09-08T05:35:02;101955.38;;;17.74;75.57
35918;BME280;22011;59.912;30.300;2023-09-08T05:37:30;101961.25;;;17.77;75.59
35918;BME280;22011;59.912;30.300;2023-09-08T05:39:59;101963.22;;;17.83;75.58
35918;BME280;22011;59.912;30.300;2023-09-08T05:42:27;101962.19;;;17.84;75.12
35918;BME280;22011;59.912;30.300;2023-09-08T05:44:55;101956.44;;;17.87;74.86
35918;BME280;22011;59.912;30.300;2023-09-08T05:47:23;101954.75;;;17.86;75.09
35918;BME280;22011;59.912;30.300;2023-09-08T05:49:50;101966.28;;;17.66;75.88
35918;BME280;22011;59.912;30.300;2023-09-08T05:52:18;101957.69;;;17.62;76.65
35918;BME280;22011;59.912;30.300;2023-09-08T05:54:47;101950.00;;;17.88;75.39
35918;BME280;22011;59.912;30.300;2023-09-08T05:57:17;101951.69;;;18.04;75.46
35918;BME280;22011;59.912;30.300;2023-09-08T05:59:44;101939.72;;;18.07;74.81
35918;BME280;22011;59.912;30.300;2023-09-08T06:02:12;101935.59;;;17.81;76.06
35918;BME280;22011;59.912;30.300;2023-09-08T06:04:40;101927.22;;;17.76;76.39
35918;BME280;22011;59.912;30.300;2023-09-08T06:07:07;101940.91;;;17.89;75.96
35918;BME280;22011;59.912;30.300;2023-09-08T06:09:36;101927.81;;;18.16;75.03
35918;BME280;22011;59.912;30.300;2023-09-08T06:12:04;101934.78;;;18.25;74.80
35918;BME280;22011;59.912;30.300;2023-09-08T06:14:33;101941.94;;;18.33;74.91
35918;BME280;22011;59.912;30.300;2023-09-08T06:17:01;101933.84;;;18.33;74.11
35918;BME280;22011;59.912;30.300;2023-09-08T06:19:28;101934.69;;;18.33;74.26
35918;BME280;22011;59.912;30.300;2023-09-08T06:21:56;101936.72;;;18.31;74.12
35918;BME280;22011;59.912;30.300;2023-09-08T06:24:23;101932.34;;;18.30;74.36
35918;BME280;22011;59.912;30.300;2023-09-08T06:26:52;101930.22;;;18.25;74.38
35918;BME280;22011;59.912;30.300;2023-09-08T06:29:20;101932.81;;;18.19;74.49
35918;BME280;22011;59.912;30.300;2023-09-08T06:31:49;101935.22;;;18.43;74.18
35918;BME280;22011;59.912;30.300;2023-09-08T06:34:17;101934.47;;;18.49;73.27
35918;BME280;22011;59.912;30.300;2023-09-08T06:36:47;101927.84;;;18.52;73.08
35918;BME280;22011;59.912;30.300;2023-09-08T06:39:15;101929.53;;;18.53;72.46
35918;BME280;22011;59.912;30.300;2023-09-08T06:41:43;101931.84;;;18.56;72.53
35918;BME280;22011;59.912;30.300;2023-09-08T06:44:14;101930.28;;;18.61;72.15
35918;BME280;22011;59.912;30.300;2023-09-08T06:46:41;101923.03;;;18.62;71.90
35918;BME280;22011;59.912;30.300;2023-09-08T06:49:10;101929.72;;;18.66;71.95
35918;BME280;22011;59.912;30.300;2023-09-08T06:51:38;101936.34;;;18.64;71.76
35918;BME280;22011;59.912;30.300;2023-09-08T06:54:06;101929.25;;;18.63;71.93
35918;BME280;22011;59.912;30.300;2023-09-08T06:56:38;101926.56;;;18.63;72.01
35918;BME280;22011;59.912;30.300;2023-09-08T06:59:07;101929.25;;;18.63;71.88
35918;BME280;22011;59.912;30.300;2023-09-08T07:01:36;101927.22;;;18.65;71.94
35918;BME280;22011;59.912;30.300;2023-09-08T07:04:05;101930.94;;;18.64;71.80
35918;BME280;22011;59.912;30.300;2023-09-08T07:06:35;101927.22;;;18.65;71.98
35918;BME280;22011;59.912;30.300;2023-09-08T07:09:04;101922.53;;;18.58;71.38
35918;BME280;22011;59.912;30.300;2023-09-08T07:11:32;101923.38;;;18.59;71.79
35918;BME280;22011;59.912;30.300;2023-09-08T07:14:00;101923.69;;;18.49;71.67
35918;BME280;22011;59.912;30.300;2023-09-08T07:16:27;101919.75;;;18.67;70.37
35918;BME280;22011;59.912;30.300;2023-09-08T07:18:55;101914.63;;;18.72;70.03
35918;BME280;22011;59.912;30.300;2023-09-08T07:21:23;101918.66;;;18.82;69.35
35918;BME280;22011;59.912;30.300;2023-09-08T07:23:52;101921.31;;;18.97;69.14
35918;BME280;22011;59.912;30.300;2023-09-08T07:26:20;101918.41;;;18.99;67.99
35918;BME280;22011;59.912;30.300;2023-09-08T07:28:48;101925.56;;;19.06;67.59
35918;BME280;22011;59.912;30.300;2023-09-08T07:31:16;101921.81;;;19.07;67.54
35918;BME280;22011;59.912;30.300;2023-09-08T07:33:47;101920.41;;;19.11;66.73
35918;BME280;22011;59.912;30.300;2023-09-08T07:36:14;101918.16;;;19.15;66.87
35918;BME280;22011;59.912;30.300;2023-09-08T07:38:44;101926.16;;;19.72;67.96
35918;BME280;22011;59.912;30.300;2023-09-08T07:41:13;101926.06;;;19.38;65.98
35918;BME280;22011;59.912;30.300;2023-09-08T07:43:41;101921.69;;;19.37;65.48
35918;BME280;22011;59.912;30.300;2023-09-08T07:46:12;101920.06;;;19.42;65.56
35918;BME280;22011;59.912;30.300;2023-09-08T07:48:40;101922.47;;;19.52;64.86
35918;BME280;22011;59.912;30.300;2023-09-08T07:51:07;101925.66;;;19.62;64.23
35918;BME280;22011;59.912;30.300;2023-09-08T07:53:35;101924.94;;;19.75;63.68
35918;BME280;22011;59.912;30.300;2023-09-08T07:56:03;101916.25;;;19.86;63.19
35918;BME280;22011;59.912;30.300;2023-09-08T07:58:32;101917.19;;;20.06;62.97
35918;BME280;22011;59.912;30.300;2023-09-08T08:01:00;101914.94;;;20.10;62.87
35918;BME280;22011;59.912;30.300;2023-09-08T08:03:27;101914.53;;;20.13;62.95
35918;BME280;22011;59.912;30.300;2023-09-08T08:05:56;101913.09;;;20.17;63.18
35918;BME280;22011;59.912;30.300;2023-09-08T08:08:24;101915.78;;;20.17;62.29
35918;BME280;22011;59.912;30.300;2023-09-08T08:10:51;101915.19;;;20.21;61.94
35918;BME280;22011;59.912;30.300;2023-09-08T08:13:19;101919.59;;;19.88;63.35
35918;BME280;22011;59.912;30.300;2023-09-08T08:15:48;101926.66;;;20.23;62.73
35918;BME280;22011;59.912;30.300;2023-09-08T08:18:16;101918.34;;;20.25;61.91
35918;BME280;22011;59.912;30.300;2023-09-08T08:20:44;101918.53;;;20.23;61.78
35918;BME280;22011;59.912;30.300;2023-09-08T08:23:11;101924.38;;;20.27;61.44
35918;BME280;22011;59.912;30.300;2023-09-08T08:25:39;101928.16;;;20.33;61.32
35918;BME280;22011;59.912;30.300;2023-09-08T08:28:06;101915.16;;;20.15;61.84
35918;BME280;22011;59.912;30.300;2023-09-08T08:30:34;101912.00;;;20.46;60.87
35918;BME280;22011;59.912;30.300;2023-09-08T08:33:03;101914.78;;;20.66;60.89
35918;BME280;22011;59.912;30.300;2023-09-08T08:35:31;101915.16;;;20.56;60.18
35918;BME280;22011;59.912;30.300;2023-09-08T08:37:59;101919.13;;;20.53;60.29
35918;BME280;22011;59.912;30.300;2023-09-08T08:40:27;101914.34;;;20.55;60.34
35918;BME280;22011;59.912;30.300;2023-09-08T08:42:55;101911.66;;;20.69;59.84
35918;BME280;22011;59.912;30.300;2023-09-08T08:45:24;101917.72;;;20.71;59.24
35918;BME280;22011;59.912;30.300;2023-09-08T08:47:52;101910.00;;;20.68;59.74
35918;BME280;22011;59.912;30.300;2023-09-08T08:50:21;101905.63;;;20.67;60.44
35918;BME280;22011;59.912;30.300;2023-09-08T08:52:49;101899.97;;;20.62;59.99
35918;BME280;22011;59.912;30.300;2023-09-08T08:55:17;101900.22;;;20.67;59.56
35918;BME280;22011;59.912;30.300;2023-09-08T08:57:45;101900.44;;;20.72;59.55
35918;BME280;22011;59.912;30.300;2023-09-08T09:00:13;101899.16;;;20.81;59.32
35918;BME280;22011;59.912;30.300;2023-09-08T09:02:45;101901.28;;;20.92;60.32
35918;BME280;22011;59.912;30.300;2023-09-08T09:05:15;101892.72;;;20.82;59.49
35918;BME280;22011;59.912;30.300;2023-09-08T09:07:44;101893.16;;;21.05;59.43
35918;BME280;22011;59.912;30.300;2023-09-08T09:10:12;101886.13;;;21.31;59.25
35918;BME280;22011;59.912;30.300;2023-09-08T09:12:41;101886.53;;;21.41;57.67
35918;BME280;22011;59.912;30.300;2023-09-08T09:15:09;101892.34;;;21.18;58.64
35918;BME280;22011;59.912;30.300;2023-09-08T09:17:37;101886.53;;;21.28;57.79
35918;BME280;22011;59.912;30.300;2023-09-08T09:20:15;101894.22;;;21.70;58.95
35918;BME280;22011;59.912;30.300;2023-09-08T09:22:45;101887.78;;;21.45;57.71
35918;BME280;22011;59.912;30.300;2023-09-08T09:25:21;101894.25;;;21.57;58.48
35918;BME280;22011;59.912;30.300;2023-09-08T09:27:52;101894.69;;;21.47;57.76
35918;BME280;22011;59.912;30.300;2023-09-08T09:30:21;101898.22;;;21.48;56.54
35918;BME280;22011;59.912;30.300;2023-09-08T09:32:58;101897.16;;;21.56;57.11
35918;BME280;22011;59.912;30.300;2023-09-08T09:35:39;101898.84;;;21.57;58.51
35918;BME280;22011;59.912;30.300;2023-09-08T09:38:09;101899.00;;;21.02;58.47
35918;BME280;22011;59.912;30.300;2023-09-08T09:40:37;101895.88;;;21.12;59.97
35918;BME280;22011;59.912;30.300;2023-09-08T09:43:06;101900.06;;;21.14;59.90
35918;BME280;22011;59.912;30.300;2023-09-08T09:45:34;101900.66;;;21.03;57.97
35918;BME280;22011;59.912;30.300;2023-09-08T09:48:02;101896.28;;;21.02;58.08
35918;BME280;22011;59.912;30.300;2023-09-08T09:50:31;101902.13;;;21.12;57.94
35918;BME280;22011;59.912;30.300;2023-09-08T09:53:00;101904.44;;;21.15;58.45
35918;BME280;22011;59.912;30.300;2023-09-08T09:55:30;101911.34;;;21.71;58.55
35918;BME280;22011;59.912;30.300;2023-09-08T09:57:58;101912.78;;;21.20;57.86
35918;BME280;22011;59.912;30.300;2023-09-08T10:00:30;101908.03;;;21.23;58.75
35918;BME280;22011;59.912;30.300;2023-09-08T10:02:59;101907.19;;;21.22;59.21
35918;BME280;22011;59.912;30.300;2023-09-08T10:05:27;101910.25;;;20.99;58.35
35918;BME280;22011;59.912;30.300;2023-09-08T10:07:54;101901.06;;;20.94;60.54
35918;BME280;22011;59.912;30.300;2023-09-08T10:10:23;101909.19;;;20.74;59.30
35918;BME280;22011;59.912;30.300;2023-09-08T10:12:57;101907.91;;;20.70;60.15
35918;BME280;22011;59.912;30.300;2023-09-08T10:15:30;101913.56;;;20.88;59.54
35918;BME280;22011;59.912;30.300;2023-09-08T10:17:59;101914.63;;;21.00;58.41
35918;BME280;22011;59.912;30.300;2023-09-08T10:20:30;101906.28;;;21.02;58.57
35918;BME280;22011;59.912;30.300;2023-09-08T10:23:04;101909.63;;;21.04;58.74
35918;BME280;22011;59.912;30.300;2023-09-08T10:25:36;101914.81;;;20.92;58.63
35918;BME280;22011;59.912;30.300;2023-09-08T10:28:06;101912.13;;;20.99;58.46
35918;BME280;22011;59.912;30.300;2023-09-08T10:30:34;101918.78;;;20.96;57.82
35918;BME280;22011;59.912;30.300;2023-09-08T10:33:03;101918.56;;;20.91;57.42
35918;BME280;22011;59.912;30.300;2023-09-08T10:35:31;101913.34;;;20.83;57.56
35918;BME280;22011;59.912;30.300;2023-09-08T10:38:23;101916.53;;;21.13;58.38
35918;BME280;22011;59.912;30.300;2023-09-08T10:40:51;101913.78;;;20.93;57.02
35918;BME280;22011;59.912;30.300;2023-09-08T10:43:20;101906.31;;;21.08;58.21
35918;BME280;22011;59.912;30.300;2023-09-08T10:45:48;101909.06;;;21.41;59.26
35918;BME280;22011;59.912;30.300;2023-09-08T10:48:19;101908.00;;;21.62;58.04
35918;BME280;22011;59.912;30.300;2023-09-08T10:50:46;101911.13;;;21.72;57.90
35918;BME280;22011;59.912;30.300;2023-09-08T10:53:15;101899.44;;;21.78;56.54
35918;BME280;22011;59.912;30.300;2023-09-08T10:55:44;101906.75;;;21.65;55.67
35918;BME280;22011;59.912;30.300;2023-09-08T10:58:19;101911.34;;;21.44;57.05
35918;BME280;22011;59.912;30.300;2023-09-08T11:00:51;101914.03;;;21.18;57.44
35918;BME280;22011;59.912;30.300;2023-09-08T11:03:27;101907.34;;;21.07;58.07
35918;BME280;22011;59.912;30.300;2023-09-08T11:05:56;101902.94;;;20.80;56.93
35918;BME280;22011;59.912;30.300;2023-09-08T11:08:25;101908.78;;;20.77;57.01
35918;BME280;22011;59.912;30.300;2023-09-08T11:10:52;101903.53;;;20.69;57.82
35918;BME280;22011;59.912;30.300;2023-09-08T11:13:21;101902.50;;;20.63;56.99
35918;BME280;22011;59.912;30.300;2023-09-08T11:15:51;101900.59;;;20.57;57.82
35918;BME280;22011;59.912;30.300;2023-09-08T11:18:25;101909.22;;;21.00;57.83
35918;BME280;22011;59.912;30.300;2023-09-08T11:20:53;101901.66;;;20.63;57.67
35918;BME280;22011;59.912;30.300;2023-09-08T11:23:20;101900.63;;;20.64;57.60
35918;BME280;22011;59.912;30.300;2023-09-08T11:25:49;101906.06;;;20.70;58.00
35918;BME280;22011;59.912;30.300;2023-09-08T11:28:18;101904.19;;;20.77;57.57
35918;BME280;22011;59.912;30.300;2023-09-08T11:30:48;101902.31;;;20.84;58.10
35918;BME280;22011;59.912;30.300;2023-09-08T11:33:17;101905.22;;;20.89;57.57
35918;BME280;22011;59.912;30.300;2023-09-08T11:35:45;101903.38;;;20.97;56.69
35918;BME280;22011;59.912;30.300;2023-09-08T11:38:13;101897.13;;;21.09;56.38
35918;BME280;22011;59.912;30.300;2023-09-08T11:40:41;101901.09;;;21.20;55.85
35918;BME280;22011;59.912;30.300;2023-09-08T11:43:09;101897.19;;;21.23;56.54
35918;BME280;22011;59.912;30.300;2023-09-08T11:45:37;101897.34;;;21.21;56.27
35918;BME280;22011;59.912;30.300;2023-09-08T11:48:06;101898.00;;;21.23;55.61
35918;BME280;22011;59.912;30.300;2023-09-08T11:50:34;101896.75;;;21.26;54.75
35918;BME280;22011;59.912;30.300;2023-09-08T11:53:01;101893.00;;;21.27;54.69
35918;BME280;22011;59.912;30.300;2023-09-08T11:55:31;101899.88;;;21.36;54.01
35918;BME280;22011;59.912;30.300;2023-09-08T11:57:58;101896.97;;;21.44;53.73
35918;BME280;22011;59.912;30.300;2023-09-08T12:00:27;101900.50;;;21.51;53.57
35918;BME280;22011;59.912;30.300;2023-09-08T12:02:55;101900.72;;;21.56;52.92
35918;BME280;22011;59.912;30.300;2023-09-08T12:05:26;101902.59;;;21.62;53.48
35918;BME280;22011;59.912;30.300;2023-09-08T12:07:55;101904.06;;;21.58;53.68
35918;BME280;22011;59.912;30.300;2023-09-08T12:10:24;101903.22;;;21.64;52.98
35918;BME280;22011;59.912;30.300;2023-09-08T12:12:53;101906.75;;;21.65;53.19
35918;BME280;22011;59.912;30.300;2023-09-08T12:15:30;101913.19;;;21.83;53.70
35918;BME280;22011;59.912;30.300;2023-09-08T12:18:00;101907.16;;;21.68;53.22
35918;BME280;22011;59.912;30.300;2023-09-08T12:20:29;101908.63;;;21.71;52.99
35918;BME280;22011;59.912;30.300;2023-09-08T12:23:00;101896.72;;;21.72;52.98
35918;BME280;22011;59.912;30.300;2023-09-08T12:25:28;101901.34;;;21.65;50.85
35918;BME280;22011;59.912;30.300;2023-09-08T12:27:58;101901.53;;;21.63;49.57
35918;BME280;22011;59.912;30.300;2023-09-08T12:30:27;101900.09;;;21.54;49.40
35918;BME280;22011;59.912;30.300;2023-09-08T12:32:59;101899.69;;;21.50;48.35
35918;BME280;22011;59.912;30.300;2023-09-08T12:35:30;101901.75;;;21.55;47.90
35918;BME280;22011;59.912;30.300;2023-09-08T12:37:58;101893.00;;;21.53;47.65
35918;BME280;22011;59.912;30.300;2023-09-08T12:40:27;101888.19;;;21.55;47.74
35918;BME280;22011;59.912;30.300;2023-09-08T12:42:55;101883.00;;;21.53;48.38
35918;BME280;22011;59.912;30.300;2023-09-08T12:45:25;101894.88;;;21.59;47.65
35918;BME280;22011;59.912;30.300;2023-09-08T12:47:54;101886.31;;;21.56;47.73